NCAR-RAP Real-Time Weather Data

Output produced by METARs form (12 May 2021  12:14 UTC)
found at http://weather.rap.ucar.edu/surface/
 
KFLG 121157Z AUTO 00000KT 10SM CLR M01/M08 A3023 RMK AO2 SLP176 T10061078 10078 21006 53007 TSNO
KFLG 121057Z AUTO 00000KT 10SM CLR 01/M08 A3022 RMK AO2 SLP166 T00061078 TSNO
KFLG 120957Z AUTO 00000KT 10SM CLR 02/M08 A3022 RMK AO2 SLP162 T00171083 TSNO
KFLG 120857Z AUTO 00000KT 10SM CLR 03/M08 A3021 RMK AO2 SLP160 T00281078 50001 TSNO
KFLG 120757Z AUTO 00000KT 10SM CLR 05/M08 A3021 RMK AO2 SLP154 T00501078 TSNO
KFLG 120657Z AUTO 22004KT 10SM CLR 06/M08 A3021 RMK AO2 SLP153 T00611083 402171022 TSNO
KFLG 120557Z AUTO 00000KT 10SM CLR 08/M09 A3021 RMK AO2 SLP151 T00781089 10200 20072 51016 TSNO
KFLG 120457Z AUTO 22004KT 10SM CLR 10/M09 A3020 RMK AO2 SLP145 T01001089 TSNO
KFLG 120357Z AUTO 00000KT 10SM CLR 11/M08 A3018 RMK AO2 SLP144 T01111083
KFLG 120257Z 22006KT 10SM OVC110 15/M08 A3015 RMK AO2 SLP131 T01501083 53010
KFLG 120157Z 22009KT 10SM BKN110 17/M08 A3012 RMK AO2 SLP124 T01721078
KFLG 120057Z 25008KT 210V280 10SM BKN110 18/M09 A3012 RMK AO2 SLP138 T01831089
KFLG 112357Z 24011KT 10SM SCT110 19/M09 A3011 RMK AO2 SLP136 T01941094 10217 20172 55004